createdAt,value
2017-12-29T00:00:02.221Z,98411.52
2017-12-29T00:02:29.775Z,98403.06
2017-12-29T00:04:57.311Z,98418.14
2017-12-29T00:07:24.900Z,98436.92
2017-12-29T00:09:52.434Z,98425.19
2017-12-29T00:12:19.990Z,98430.03
2017-12-29T00:14:47.584Z,98418.91
2017-12-29T00:17:15.144Z,98430.59
2017-12-29T00:19:42.701Z,98436.55
2017-12-29T00:22:10.402Z,98434.69
2017-12-29T00:24:37.959Z,98450.16
2017-12-29T00:27:05.501Z,98454.50
2017-12-29T00:29:33.103Z,98451.83
2017-12-29T00:32:00.678Z,98450.76
2017-12-29T00:34:28.238Z,98439.02
2017-12-29T00:36:55.828Z,98446.45
2017-12-29T00:39:23.382Z,98457.65
2017-12-29T00:41:50.951Z,98446.45
2017-12-29T00:44:18.529Z,98445.11
2017-12-29T00:46:46.091Z,98454.27
2017-12-29T00:49:13.656Z,98449.70
2017-12-29T00:51:41.265Z,98467.63
2017-12-29T00:54:08.832Z,98471.41
2017-12-29T00:56:36.400Z,98470.72
2017-12-29T00:59:04.001Z,98456.30
2017-12-29T01:01:31.576Z,98466.67
2017-12-29T01:03:59.140Z,98468.95
2017-12-29T01:06:26.733Z,98460.59
2017-12-29T01:08:54.307Z,98467.75
2017-12-29T01:11:22.033Z,98476.94
2017-12-29T01:13:49.630Z,98463.04
2017-12-29T01:16:17.195Z,98484.87
2017-12-29T01:18:44.776Z,98470.84
2017-12-29T01:21:12.393Z,98477.72
2017-12-29T01:23:39.976Z,98477.86
2017-12-29T01:26:07.553Z,98484.73
2017-12-29T01:28:35.170Z,98482.08
2017-12-29T01:31:02.740Z,98489.35
2017-12-29T01:33:30.319Z,98489.06
2017-12-29T01:35:57.938Z,98499.59
2017-12-29T01:38:25.527Z,98501.33
2017-12-29T01:40:53.141Z,98502.16
2017-12-29T01:43:20.756Z,98497.17
2017-12-29T01:45:48.454Z,98483.44
2017-12-29T01:48:16.012Z,98498.09
2017-12-29T01:50:43.577Z,98495.41
2017-12-29T01:53:11.140Z,98488.02
2017-12-29T01:55:38.716Z,98487.20
2017-12-29T01:58:06.325Z,98483.96
2017-12-29T02:00:33.909Z,98484.36
2017-12-29T02:03:01.479Z,98491.92
2017-12-29T02:05:29.122Z,98495.55
2017-12-29T02:07:56.718Z,98502.41
2017-12-29T02:10:25.207Z,98509.14
2017-12-29T02:12:52.814Z,98503.36
2017-12-29T02:15:20.384Z,98493.92
2017-12-29T02:17:47.941Z,98490.30
2017-12-29T02:20:15.536Z,98492.83
2017-12-29T02:22:43.108Z,98497.28
2017-12-29T02:25:10.675Z,98494.88
2017-12-29T02:27:38.289Z,98484.09
2017-12-29T02:30:05.881Z,98483.02
2017-12-29T02:32:33.419Z,98486.52
2017-12-29T02:35:01.011Z,98486.23
2017-12-29T02:37:28.587Z,98483.42
2017-12-29T02:39:56.165Z,98491.50
2017-12-29T02:42:23.754Z,98490.14
2017-12-29T02:44:51.309Z,98499.86
2017-12-29T02:47:18.884Z,98498.38
2017-12-29T02:49:46.498Z,98501.20
2017-12-29T02:52:14.063Z,98502.67
2017-12-29T02:54:41.641Z,98512.08
2017-12-29T02:57:09.230Z,98515.55
2017-12-29T02:59:36.801Z,98513.97
2017-12-29T03:02:04.397Z,98510.34
2017-12-29T03:04:32.005Z,98509.24
2017-12-29T03:06:59.603Z,98514.48
2017-12-29T03:09:27.172Z,98515.16
2017-12-29T03:11:54.796Z,98514.46
2017-12-29T03:14:22.406Z,98517.80
2017-12-29T03:16:49.980Z,98517.36
2017-12-29T03:19:17.579Z,98523.69
2017-12-29T03:21:45.171Z,98522.88
2017-12-29T03:24:12.753Z,98522.75
2017-12-29T03:26:40.362Z,98527.89
2017-12-29T03:29:07.950Z,98523.47
2017-12-29T03:31:35.522Z,98527.08
2017-12-29T03:34:03.123Z,98525.66
2017-12-29T03:36:30.693Z,98524.55
2017-12-29T03:38:58.265Z,98519.30
2017-12-29T03:41:25.879Z,98528.89
2017-12-29T03:43:53.593Z,98532.92
2017-12-29T03:46:21.168Z,98533.73
2017-12-29T03:48:48.780Z,98537.57
2017-12-29T03:51:16.369Z,98547.42
2017-12-29T03:53:43.959Z,98557.60
2017-12-29T03:56:11.563Z,98558.33
2017-12-29T03:58:39.147Z,98560.16
2017-12-29T04:01:06.697Z,98561.52
2017-12-29T04:03:34.312Z,98556.12
2017-12-29T04:06:01.886Z,98559.36
2017-12-29T04:08:29.456Z,98567.39
2017-12-29T04:10:57.454Z,98578.34
2017-12-29T04:13:25.029Z,98588.46
2017-12-29T04:15:52.608Z,98591.87
2017-12-29T04:18:20.233Z,98594.95
2017-12-29T04:20:47.785Z,98596.73
2017-12-29T04:23:15.360Z,98597.79
2017-12-29T04:25:42.989Z,98601.69
2017-12-29T04:28:10.569Z,98614.57
2017-12-29T04:30:38.143Z,98622.65
2017-12-29T04:33:06.824Z,98621.36
2017-12-29T04:35:34.403Z,98626.14
2017-12-29T04:38:02.125Z,98624.12
2017-12-29T04:40:29.716Z,98634.52
2017-12-29T04:42:57.318Z,98641.30
2017-12-29T04:45:24.947Z,98634.33
2017-12-29T04:47:52.552Z,98628.91
2017-12-29T04:50:20.129Z,98633.06
2017-12-29T04:52:47.745Z,98631.32
2017-12-29T04:55:15.328Z,98632.33
2017-12-29T04:57:42.895Z,98631.61
2017-12-29T05:00:10.502Z,98642.28
2017-12-29T05:02:38.066Z,98640.30
2017-12-29T05:05:05.636Z,98645.50
2017-12-29T05:07:33.260Z,98640.11
2017-12-29T05:10:00.840Z,98640.36
2017-12-29T05:12:28.424Z,98635.75
2017-12-29T05:14:56.032Z,98634.92
2017-12-29T05:17:23.613Z,98638.73
2017-12-29T05:19:51.192Z,98648.91
2017-12-29T05:22:18.836Z,98646.73
2017-12-29T05:24:46.424Z,98652.19
2017-12-29T05:27:13.993Z,98646.42
2017-12-29T05:29:41.613Z,98651.18
2017-12-29T05:32:09.197Z,98648.58
2017-12-29T05:34:36.792Z,98640.64
2017-12-29T05:37:04.413Z,98636.99
2017-12-29T05:39:31.983Z,98647.52
2017-12-29T05:41:59.590Z,98647.72
2017-12-29T05:44:27.209Z,98652.09
2017-12-29T05:46:54.945Z,98648.94
2017-12-29T05:49:22.530Z,98647.41
2017-12-29T05:51:50.149Z,98656.88
2017-12-29T05:54:17.750Z,98648.94
2017-12-29T05:56:45.333Z,98646.28
2017-12-29T05:59:12.940Z,98643.27
2017-12-29T06:01:40.534Z,98640.05
2017-12-29T06:04:08.111Z,98642.41
2017-12-29T06:06:35.723Z,98645.57
2017-12-29T06:09:03.352Z,98644.69
2017-12-29T06:11:30.961Z,98647.57
2017-12-29T06:13:58.563Z,98648.58
2017-12-29T06:16:26.142Z,98645.84
2017-12-29T06:18:53.715Z,98640.44
2017-12-29T06:21:21.324Z,98651.08
2017-12-29T06:23:48.896Z,98652.30
2017-12-29T06:26:16.466Z,98658.17
2017-12-29T06:28:44.068Z,98659.71
2017-12-29T06:31:11.635Z,98653.94
2017-12-29T06:33:39.197Z,98659.94
2017-12-29T06:36:06.789Z,98666.84
2017-12-29T06:38:34.398Z,98669.38
2017-12-29T06:41:01.971Z,98679.84
2017-12-29T06:43:29.597Z,98678.49
2017-12-29T06:45:57.167Z,98681.22
2017-12-29T06:48:24.749Z,98686.58
2017-12-29T06:50:52.351Z,98695.37
2017-12-29T06:53:19.943Z,98702.57
2017-12-29T06:55:47.517Z,98707.59
2017-12-29T06:58:15.231Z,98706.94
2017-12-29T07:00:42.798Z,98713.67
2017-12-29T07:03:10.373Z,98710.22
2017-12-29T07:05:37.979Z,98715.48
2017-12-29T07:08:05.561Z,98714.70
2017-12-29T07:10:33.124Z,98712.23
2017-12-29T07:13:00.735Z,98709.72
2017-12-29T07:15:28.337Z,98714.34
2017-12-29T07:17:56.038Z,98713.62
2017-12-29T07:20:23.655Z,98715.08
2017-12-29T07:22:51.207Z,98715.98
2017-12-29T07:25:18.790Z,98716.55
2017-12-29T07:27:46.414Z,98719.84
2017-12-29T07:30:14.003Z,98719.86
2017-12-29T07:32:41.577Z,98722.57
2017-12-29T07:35:09.207Z,98723.26
2017-12-29T07:37:36.769Z,98732.55
2017-12-29T07:40:04.316Z,98734.08
2017-12-29T07:42:31.911Z,98740.41
2017-12-29T07:44:59.488Z,98742.18
2017-12-29T07:47:27.075Z,98743.67
2017-12-29T07:49:54.717Z,98752.19
2017-12-29T07:52:22.324Z,98747.80
2017-12-29T07:54:49.888Z,98750.03
2017-12-29T07:57:17.487Z,98754.37
2017-12-29T07:59:45.070Z,98751.58
2017-12-29T08:02:12.647Z,98762.70
2017-12-29T08:04:40.298Z,98769.70
2017-12-29T08:07:07.937Z,98758.05
2017-12-29T08:09:35.525Z,98767.57
2017-12-29T08:12:03.206Z,98759.36
2017-12-29T08:14:30.783Z,98768.36
2017-12-29T08:16:58.343Z,98766.13
2017-12-29T08:19:25.952Z,98770.37
2017-12-29T08:21:53.541Z,98771.27
2017-12-29T08:24:21.160Z,98782.81
2017-12-29T08:26:48.785Z,98783.13
2017-12-29T08:29:16.441Z,98776.28
2017-12-29T08:31:44.004Z,98769.08
2017-12-29T08:34:11.590Z,98773.03
2017-12-29T08:36:39.155Z,98787.12
2017-12-29T08:39:06.825Z,98782.88
2017-12-29T08:41:34.424Z,98779.17
2017-12-29T08:44:02.011Z,98788.59
2017-12-29T08:46:29.575Z,98785.85
2017-12-29T08:48:57.294Z,98791.67
2017-12-29T08:51:24.853Z,98791.64
2017-12-29T08:53:52.445Z,98789.61
2017-12-29T08:56:20.042Z,98791.73
2017-12-29T08:58:47.602Z,98797.65
2017-12-29T09:01:15.164Z,98790.84
2017-12-29T09:03:42.765Z,98797.73
2017-12-29T09:06:10.341Z,98795.20
2017-12-29T09:08:37.943Z,98799.55
2017-12-29T09:11:05.550Z,98802.47
2017-12-29T09:13:33.124Z,98804.37
2017-12-29T09:16:00.691Z,98799.58
2017-12-29T09:18:28.298Z,98800.45
2017-12-29T09:20:55.870Z,98813.58
2017-12-29T09:23:23.447Z,98802.61
2017-12-29T09:25:51.075Z,98805.35
2017-12-29T09:28:18.673Z,98815.67
2017-12-29T09:30:46.253Z,98817.19
2017-12-29T09:33:13.872Z,98816.62
2017-12-29T09:35:41.496Z,98821.85
2017-12-29T09:38:09.051Z,98824.27
2017-12-29T09:40:36.668Z,98819.27
2017-12-29T09:43:04.255Z,98819.55
2017-12-29T09:45:31.834Z,98827.62
2017-12-29T09:47:59.417Z,98821.95
2017-12-29T09:50:26.993Z,98818.63
2017-12-29T09:52:54.564Z,98821.31
2017-12-29T09:55:22.182Z,98823.64
2017-12-29T09:57:49.742Z,98821.84
2017-12-29T10:00:17.317Z,98815.30
2017-12-29T10:02:44.923Z,98813.24
2017-12-29T10:05:12.488Z,98817.67
2017-12-29T10:07:40.060Z,98821.16
2017-12-29T10:10:07.657Z,98808.16
2017-12-29T10:12:35.227Z,98813.30
2017-12-29T10:15:02.802Z,98818.73
2017-12-29T10:17:30.404Z,98816.02
2017-12-29T10:19:57.976Z,98812.41
2017-12-29T10:22:25.548Z,98809.75
2017-12-29T10:24:53.152Z,98813.34
2017-12-29T10:27:20.699Z,98818.07
2017-12-29T10:29:48.264Z,98811.89
2017-12-29T10:32:15.876Z,98802.02
2017-12-29T10:34:43.448Z,98796.31
2017-12-29T10:37:11.067Z,98786.72
2017-12-29T10:39:38.677Z,98788.67
2017-12-29T10:42:06.410Z,98796.16
2017-12-29T10:44:34.041Z,98794.63
2017-12-29T10:47:01.601Z,98785.01
2017-12-29T10:49:29.161Z,98782.42
2017-12-29T10:51:56.778Z,98779.88
2017-12-29T10:54:24.358Z,98769.71
2017-12-29T10:56:51.935Z,98770.22
2017-12-29T10:59:19.529Z,98768.53
2017-12-29T11:01:47.101Z,98775.66
2017-12-29T11:04:14.666Z,98769.20
2017-12-29T11:06:42.518Z,98761.72
2017-12-29T11:09:10.137Z,98764.65
2017-12-29T11:11:37.693Z,98757.83
2017-12-29T11:14:05.286Z,98750.49
2017-12-29T11:16:33.717Z,98747.44
2017-12-29T11:19:01.323Z,98750.62
2017-12-29T11:21:28.935Z,98753.67
2017-12-29T11:23:56.487Z,98764.34
2017-12-29T11:26:24.077Z,98768.16
2017-12-29T11:28:51.696Z,98782.41
2017-12-29T11:31:19.271Z,98788.18
2017-12-29T11:33:46.828Z,98786.78
2017-12-29T11:36:14.417Z,98788.51
2017-12-29T11:38:41.995Z,98793.23
2017-12-29T11:41:09.592Z,98793.27
2017-12-29T11:43:37.179Z,98797.73
2017-12-29T11:46:04.739Z,98797.66
2017-12-29T11:48:32.308Z,98792.81
2017-12-29T11:50:59.903Z,98791.23
2017-12-29T11:53:27.492Z,98788.05
2017-12-29T11:55:55.092Z,98773.34
2017-12-29T11:58:22.716Z,98771.05
2017-12-29T12:00:50.323Z,98766.45
2017-12-29T12:03:17.875Z,98771.00
2017-12-29T12:05:45.544Z,98780.67
2017-12-29T12:08:13.113Z,98786.55
2017-12-29T12:10:40.683Z,98791.73
2017-12-29T12:13:08.277Z,98798.13
2017-12-29T12:15:35.834Z,98809.48
2017-12-29T12:18:03.493Z,98808.47
2017-12-29T12:20:31.120Z,98805.98
2017-12-29T12:22:58.680Z,98803.02
2017-12-29T12:25:26.227Z,98802.58
2017-12-29T12:27:53.819Z,98805.41
2017-12-29T12:30:21.379Z,98804.88
2017-12-29T12:32:48.951Z,98806.08
2017-12-29T12:35:16.571Z,98805.02
2017-12-29T12:37:44.138Z,98798.67
2017-12-29T12:40:11.732Z,98794.20
2017-12-29T12:42:39.378Z,98789.91
2017-12-29T12:45:06.948Z,98786.77
2017-12-29T12:47:34.518Z,98795.77
2017-12-29T12:50:02.132Z,98802.06
2017-12-29T12:52:29.699Z,98795.53
2017-12-29T12:54:57.264Z,98800.78
2017-12-29T12:57:24.911Z,98801.83
2017-12-29T12:59:52.530Z,98805.97
2017-12-29T13:02:20.089Z,98802.45
2017-12-29T13:04:47.687Z,98801.73
2017-12-29T13:07:15.313Z,98807.77
2017-12-29T13:09:42.902Z,98808.77
2017-12-29T13:12:10.502Z,98806.44
2017-12-29T13:14:38.054Z,98818.06
2017-12-29T13:17:05.612Z,98819.48
2017-12-29T13:19:33.227Z,98825.38
2017-12-29T13:22:00.783Z,98830.27
2017-12-29T13:24:28.368Z,98830.88
2017-12-29T13:26:55.987Z,98840.61
2017-12-29T13:29:23.549Z,98828.38
2017-12-29T13:31:51.135Z,98838.36
2017-12-29T13:34:18.728Z,98835.48
2017-12-29T13:36:46.340Z,98839.42
2017-12-29T13:39:13.954Z,98835.84
2017-12-29T13:41:41.539Z,98845.34
2017-12-29T13:44:09.111Z,98846.67
2017-12-29T13:46:36.663Z,98848.66
2017-12-29T13:49:04.242Z,98845.94
2017-12-29T13:51:31.812Z,98843.64
2017-12-29T13:53:59.372Z,98844.77
2017-12-29T13:56:26.981Z,98841.31
2017-12-29T13:58:54.628Z,98837.23
2017-12-29T14:01:22.187Z,98831.30
2017-12-29T14:03:49.782Z,98830.64
2017-12-29T14:06:17.362Z,98834.66
2017-12-29T14:08:44.916Z,98836.02
2017-12-29T14:11:12.524Z,98835.39
2017-12-29T14:13:40.120Z,98841.73
2017-12-29T14:16:07.702Z,98846.16
2017-12-29T14:18:35.294Z,98845.34
2017-12-29T14:21:02.876Z,98846.26
2017-12-29T14:23:30.433Z,98839.47
2017-12-29T14:25:58.040Z,98844.34
2017-12-29T14:28:25.595Z,98849.87
2017-12-29T14:30:53.209Z,98852.81
2017-12-29T14:33:20.801Z,98850.93
2017-12-29T14:35:48.445Z,98851.81
2017-12-29T14:38:15.987Z,98856.61
2017-12-29T14:40:43.570Z,98853.13
2017-12-29T14:43:11.151Z,98854.46
2017-12-29T14:45:38.733Z,98862.55
2017-12-29T14:48:06.337Z,98870.41
2017-12-29T14:50:33.905Z,98878.77
2017-12-29T14:53:01.497Z,98882.88
2017-12-29T14:55:29.092Z,98880.56
2017-12-29T14:57:56.661Z,98889.03
2017-12-29T15:00:24.216Z,98889.56
2017-12-29T15:02:51.820Z,98889.42
2017-12-29T15:05:19.402Z,98898.69
2017-12-29T15:07:46.962Z,98908.18
2017-12-29T15:10:14.571Z,98908.09
2017-12-29T15:12:42.196Z,98911.34
2017-12-29T15:15:09.798Z,98910.16
2017-12-29T15:17:37.417Z,98909.95
2017-12-29T15:20:04.984Z,98910.00
2017-12-29T15:22:32.536Z,98906.88
2017-12-29T15:25:00.138Z,98908.44
2017-12-29T15:27:27.693Z,98915.12
2017-12-29T15:29:55.299Z,98923.45
2017-12-29T15:32:22.940Z,98919.66
2017-12-29T15:34:50.571Z,98924.16
2017-12-29T15:37:18.207Z,98922.49
2017-12-29T15:39:45.802Z,98935.30
2017-12-29T15:42:13.370Z,98930.25
2017-12-29T15:44:40.948Z,98942.06
2017-12-29T15:47:08.533Z,98933.44
2017-12-29T15:49:36.123Z,98933.00
2017-12-29T15:52:03.687Z,98931.81
2017-12-29T15:54:31.296Z,98930.42
2017-12-29T15:56:58.836Z,98943.28
2017-12-29T15:59:26.421Z,98943.86
2017-12-29T16:01:54.829Z,98947.09
2017-12-29T16:04:22.396Z,98952.73
2017-12-29T16:06:49.966Z,98940.45
2017-12-29T16:09:17.570Z,98952.64
2017-12-29T16:11:45.130Z,98958.91
2017-12-29T16:14:12.696Z,98960.75
2017-12-29T16:16:40.296Z,98962.48
2017-12-29T16:19:07.866Z,98974.09
2017-12-29T16:21:35.430Z,98982.38
2017-12-29T16:24:03.039Z,98989.46
2017-12-29T16:26:30.615Z,98992.66
2017-12-29T16:28:58.208Z,98993.74
2017-12-29T16:31:25.823Z,99000.02
2017-12-29T16:33:53.576Z,99003.52
2017-12-29T16:36:21.126Z,99000.12
2017-12-29T16:38:48.701Z,99000.58
2017-12-29T16:41:16.263Z,99002.20
2017-12-29T16:43:43.927Z,99007.02
2017-12-29T16:46:11.467Z,98999.74
2017-12-29T16:48:39.051Z,99003.95
2017-12-29T16:51:06.678Z,98994.08
2017-12-29T16:53:34.255Z,98989.34
2017-12-29T16:56:01.805Z,98995.95
2017-12-29T16:58:29.501Z,98999.48
2017-12-29T17:00:57.095Z,98999.73
2017-12-29T17:03:25.536Z,98999.30
2017-12-29T17:05:53.097Z,99008.78
2017-12-29T17:08:20.692Z,99017.84
2017-12-29T17:10:48.250Z,99039.06
2017-12-29T17:13:15.819Z,99038.81
2017-12-29T17:15:43.423Z,99045.69
2017-12-29T17:18:11.020Z,99042.59
2017-12-29T17:20:38.598Z,99046.59
2017-12-29T17:23:06.247Z,99048.00
2017-12-29T17:25:33.839Z,99048.47
2017-12-29T17:28:02.142Z,99043.47
2017-12-29T17:30:29.866Z,99041.50
2017-12-29T17:32:59.722Z,99049.20
2017-12-29T17:35:29.477Z,99053.95
2017-12-29T17:37:59.695Z,99057.77
2017-12-29T17:40:29.794Z,99069.73
2017-12-29T17:43:00.258Z,99075.25
2017-12-29T17:45:30.154Z,99078.73
2017-12-29T17:47:57.875Z,99094.66
2017-12-29T17:50:25.469Z,99090.44
2017-12-29T17:52:53.006Z,99094.14
2017-12-29T17:55:20.576Z,99094.44
2017-12-29T17:57:48.162Z,99100.66
2017-12-29T18:00:15.764Z,99095.66
2017-12-29T18:02:43.347Z,99096.89
2017-12-29T18:05:10.955Z,99099.72
2017-12-29T18:07:38.521Z,99103.61
2017-12-29T18:10:06.086Z,99108.09
2017-12-29T18:12:33.705Z,99109.06
2017-12-29T18:15:01.274Z,99116.05
2017-12-29T18:17:28.842Z,99118.70
2017-12-29T18:19:56.434Z,99116.66
2017-12-29T18:22:23.986Z,99113.66
2017-12-29T18:24:51.635Z,99122.72
2017-12-29T18:27:19.227Z,99118.19
2017-12-29T18:29:46.762Z,99126.94
2017-12-29T18:32:14.349Z,99130.02
2017-12-29T18:34:41.926Z,99129.16
2017-12-29T18:37:09.530Z,99132.28
2017-12-29T18:39:37.103Z,99134.13
2017-12-29T18:42:04.754Z,99146.67
2017-12-29T18:44:32.324Z,99150.28
2017-12-29T18:46:59.886Z,99155.55
2017-12-29T18:49:27.458Z,99149.47
2017-12-29T18:51:55.001Z,99153.08
2017-12-29T18:54:22.593Z,99163.52
2017-12-29T18:56:50.219Z,99163.50
2017-12-29T18:59:17.799Z,99164.03
2017-12-29T19:01:45.356Z,99165.84
2017-12-29T19:04:12.946Z,99171.70
2017-12-29T19:06:40.765Z,99182.30
2017-12-29T19:09:08.354Z,99185.16
2017-12-29T19:11:35.954Z,99186.88
2017-12-29T19:14:03.514Z,99184.91
2017-12-29T19:16:31.089Z,99190.80
2017-12-29T19:18:58.683Z,99199.22
2017-12-29T19:21:26.248Z,99198.22
2017-12-29T19:23:53.818Z,99200.06
2017-12-29T19:26:21.395Z,99204.81
2017-12-29T19:28:48.959Z,99210.18
2017-12-29T19:31:16.579Z,99216.25
2017-12-29T19:33:44.153Z,99213.91
2017-12-29T19:36:11.710Z,99228.20
2017-12-29T19:38:39.367Z,99224.72
2017-12-29T19:41:07.001Z,99229.02
2017-12-29T19:43:34.576Z,99225.54
2017-12-29T19:46:02.131Z,99235.75
2017-12-29T19:48:29.725Z,99244.70
2017-12-29T19:50:57.282Z,99245.87
2017-12-29T19:53:24.848Z,99256.73
2017-12-29T19:55:52.431Z,99264.31
2017-12-29T19:58:19.989Z,99257.58
2017-12-29T20:00:47.518Z,99268.13
2017-12-29T20:03:15.086Z,99266.52
2017-12-29T20:05:42.707Z,99260.67
2017-12-29T20:08:10.265Z,99265.80
2017-12-29T20:10:37.832Z,99269.08
2017-12-29T20:13:05.416Z,99271.34
2017-12-29T20:15:32.976Z,99283.91
2017-12-29T20:18:00.513Z,99285.45
2017-12-29T20:20:28.120Z,99289.22
2017-12-29T20:22:55.684Z,99291.69
2017-12-29T20:25:23.262Z,99297.94
2017-12-29T20:27:50.881Z,99303.77
2017-12-29T20:30:18.493Z,99306.81
2017-12-29T20:32:46.054Z,99310.00
2017-12-29T20:35:13.664Z,99314.91
2017-12-29T20:37:41.224Z,99313.28
2017-12-29T20:40:08.786Z,99320.25
2017-12-29T20:42:36.379Z,99326.98
2017-12-29T20:45:03.931Z,99327.98
2017-12-29T20:47:31.483Z,99332.16
2017-12-29T20:49:59.082Z,99339.38
2017-12-29T20:52:26.657Z,99340.58
2017-12-29T20:54:54.209Z,99352.77
2017-12-29T20:57:21.801Z,99353.98
2017-12-29T20:59:49.359Z,99361.97
2017-12-29T21:02:16.924Z,99361.87
2017-12-29T21:04:44.503Z,99361.36
2017-12-29T21:07:12.080Z,99374.66
2017-12-29T21:09:39.665Z,99373.95
2017-12-29T21:12:07.296Z,99377.63
2017-12-29T21:14:34.891Z,99377.97
2017-12-29T21:17:02.468Z,99372.03
2017-12-29T21:19:30.067Z,99379.91
2017-12-29T21:21:57.629Z,99386.66
2017-12-29T21:24:25.199Z,99383.32
2017-12-29T21:26:52.793Z,99390.97
2017-12-29T21:29:20.382Z,99390.25
2017-12-29T21:31:47.945Z,99388.61
2017-12-29T21:34:15.681Z,99398.06
2017-12-29T21:36:43.344Z,99403.00
2017-12-29T21:39:10.890Z,99398.09
2017-12-29T21:41:38.482Z,99401.27
2017-12-29T21:44:06.034Z,99402.66
2017-12-29T21:46:33.601Z,99405.53
2017-12-29T21:49:01.250Z,99394.48
2017-12-29T21:51:28.879Z,99401.47
2017-12-29T21:53:56.456Z,99400.04
2017-12-29T21:56:24.046Z,99401.58
2017-12-29T21:58:51.601Z,99402.77
2017-12-29T22:01:19.176Z,99395.19
2017-12-29T22:03:46.814Z,99395.40
2017-12-29T22:06:14.359Z,99390.86
2017-12-29T22:08:41.912Z,99396.95
2017-12-29T22:11:09.518Z,99388.53
2017-12-29T22:13:37.085Z,99399.41
2017-12-29T22:16:04.645Z,99404.84
2017-12-29T22:18:32.249Z,99416.13
2017-12-29T22:20:59.809Z,99424.35
2017-12-29T22:23:27.379Z,99432.39
2017-12-29T22:25:55.169Z,99428.51
2017-12-29T22:28:22.709Z,99414.80
2017-12-29T22:30:50.281Z,99427.49
2017-12-29T22:33:17.903Z,99425.38
2017-12-29T22:35:45.477Z,99428.14
2017-12-29T22:38:13.062Z,99422.20
2017-12-29T22:40:40.647Z,99419.14
2017-12-29T22:43:08.192Z,99420.22
2017-12-29T22:45:35.749Z,99422.64
2017-12-29T22:48:03.345Z,99421.27
2017-12-29T22:50:30.913Z,99425.44
2017-12-29T22:52:58.482Z,99436.13
2017-12-29T22:55:26.144Z,99434.89
2017-12-29T22:57:53.709Z,99436.73
2017-12-29T23:00:21.403Z,99440.58
2017-12-29T23:02:48.977Z,99432.95
2017-12-29T23:05:16.537Z,99433.67
2017-12-29T23:07:44.114Z,99436.06
2017-12-29T23:10:11.700Z,99432.30
2017-12-29T23:12:39.245Z,99440.88
2017-12-29T23:15:06.790Z,99448.04
2017-12-29T23:17:34.455Z,99451.25
2017-12-29T23:20:02.017Z,99457.13
2017-12-29T23:22:29.581Z,99455.61
2017-12-29T23:24:57.176Z,99456.23
2017-12-29T23:27:24.844Z,99462.09
2017-12-29T23:29:52.394Z,99455.20
2017-12-29T23:32:20.004Z,99457.14
2017-12-29T23:34:47.657Z,99454.88
2017-12-29T23:37:15.222Z,99450.52
2017-12-29T23:39:42.826Z,99453.23
2017-12-29T23:42:10.384Z,99457.42
2017-12-29T23:44:37.953Z,99464.86
2017-12-29T23:47:05.546Z,99472.77
2017-12-29T23:49:33.150Z,99478.29
2017-12-29T23:52:00.710Z,99477.83
2017-12-29T23:54:28.323Z,99478.75
2017-12-29T23:56:55.888Z,99481.46
2017-12-29T23:59:23.453Z,99483.92
